sensor_id;sensor_type;location;lat;lon;timestamp;P1;durP1;ratioP1;P2;durP2;ratioP2
28623;SDS011;15813;46.932;19.658;2023-04-21T00:00:51;39.17;;;35.92;;
28623;SDS011;15813;46.932;19.658;2023-04-21T00:03:17;39.17;;;36.20;;
28623;SDS011;15813;46.932;19.658;2023-04-21T00:05:45;39.22;;;36.03;;
28623;SDS011;15813;46.932;19.658;2023-04-21T00:08:10;39.47;;;36.13;;
28623;SDS011;15813;46.932;19.658;2023-04-21T00:10:35;31.40;;;28.85;;
28623;SDS011;15813;46.932;19.658;2023-04-21T00:13:01;40.58;;;36.85;;
28623;SDS011;15813;46.932;19.658;2023-04-21T00:15:26;33.28;;;30.02;;
28623;SDS011;15813;46.932;19.658;2023-04-21T00:17:51;31.80;;;28.58;;
28623;SDS011;15813;46.932;19.658;2023-04-21T00:20:17;43.58;;;39.25;;
28623;SDS011;15813;46.932;19.658;2023-04-21T00:22:42;34.58;;;31.17;;
28623;SDS011;15813;46.932;19.658;2023-04-21T00:25:08;37.20;;;34.10;;
28623;SDS011;15813;46.932;19.658;2023-04-21T00:27:33;43.97;;;40.60;;
28623;SDS011;15813;46.932;19.658;2023-04-21T00:29:58;46.30;;;42.70;;
28623;SDS011;15813;46.932;19.658;2023-04-21T00:32:24;38.40;;;35.40;;
28623;SDS011;15813;46.932;19.658;2023-04-21T00:34:49;37.88;;;34.25;;
28623;SDS011;15813;46.932;19.658;2023-04-21T00:37:14;27.25;;;24.55;;
28623;SDS011;15813;46.932;19.658;2023-04-21T00:39:40;28.20;;;25.02;;
28623;SDS011;15813;46.932;19.658;2023-04-21T00:42:05;24.27;;;20.90;;
28623;SDS011;15813;46.932;19.658;2023-04-21T00:44:30;24.50;;;22.25;;
28623;SDS011;15813;46.932;19.658;2023-04-21T00:46:56;26.55;;;24.02;;
28623;SDS011;15813;46.932;19.658;2023-04-21T00:49:21;20.40;;;18.15;;
28623;SDS011;15813;46.932;19.658;2023-04-21T00:51:47;20.05;;;17.52;;
28623;SDS011;15813;46.932;19.658;2023-04-21T00:54:12;28.35;;;25.85;;
28623;SDS011;15813;46.932;19.658;2023-04-21T00:56:38;29.95;;;27.42;;
28623;SDS011;15813;46.932;19.658;2023-04-21T00:59:03;30.92;;;27.63;;
28623;SDS011;15813;46.932;19.658;2023-04-21T01:01:29;36.40;;;32.92;;
28623;SDS011;15813;46.932;19.658;2023-04-21T01:03:57;30.15;;;27.45;;
28623;SDS011;15813;46.932;19.658;2023-04-21T01:06:23;32.25;;;29.77;;
28623;SDS011;15813;46.932;19.658;2023-04-21T01:08:48;43.50;;;39.45;;
28623;SDS011;15813;46.932;19.658;2023-04-21T01:11:16;32.30;;;29.52;;
28623;SDS011;15813;46.932;19.658;2023-04-21T01:13:41;36.75;;;33.97;;
28623;SDS011;15813;46.932;19.658;2023-04-21T01:16:06;29.50;;;27.08;;
28623;SDS011;15813;46.932;19.658;2023-04-21T01:18:34;26.08;;;22.52;;
28623;SDS011;15813;46.932;19.658;2023-04-21T01:21:01;29.20;;;26.85;;
28623;SDS011;15813;46.932;19.658;2023-04-21T01:23:26;47.47;;;43.85;;
28623;SDS011;15813;46.932;19.658;2023-04-21T01:25:52;35.67;;;33.00;;
28623;SDS011;15813;46.932;19.658;2023-04-21T01:28:21;37.85;;;34.85;;
28623;SDS011;15813;46.932;19.658;2023-04-21T01:30:46;36.35;;;33.25;;
28623;SDS011;15813;46.932;19.658;2023-04-21T01:33:11;36.75;;;33.38;;
28623;SDS011;15813;46.932;19.658;2023-04-21T01:35:36;37.35;;;33.95;;
28623;SDS011;15813;46.932;19.658;2023-04-21T01:38:02;30.02;;;27.10;;
28623;SDS011;15813;46.932;19.658;2023-04-21T01:40:27;40.85;;;37.05;;
28623;SDS011;15813;46.932;19.658;2023-04-21T01:42:52;44.15;;;40.60;;
28623;SDS011;15813;46.932;19.658;2023-04-21T01:45:18;32.67;;;29.77;;
28623;SDS011;15813;46.932;19.658;2023-04-21T01:47:43;37.03;;;33.65;;
28623;SDS011;15813;46.932;19.658;2023-04-21T01:50:08;44.42;;;40.75;;
28623;SDS011;15813;46.932;19.658;2023-04-21T01:52:34;47.30;;;43.35;;
28623;SDS011;15813;46.932;19.658;2023-04-21T01:54:59;47.08;;;42.78;;
28623;SDS011;15813;46.932;19.658;2023-04-21T01:57:24;56.30;;;51.15;;
28623;SDS011;15813;46.932;19.658;2023-04-21T01:59:50;167.65;;;103.30;;
28623;SDS011;15813;46.932;19.658;2023-04-21T02:02:15;113.22;;;98.15;;
28623;SDS011;15813;46.932;19.658;2023-04-21T02:04:40;106.72;;;95.10;;
28623;SDS011;15813;46.932;19.658;2023-04-21T02:07:06;91.63;;;83.20;;
28623;SDS011;15813;46.932;19.658;2023-04-21T02:09:31;89.22;;;80.32;;
28623;SDS011;15813;46.932;19.658;2023-04-21T02:11:56;91.78;;;82.65;;
28623;SDS011;15813;46.932;19.658;2023-04-21T02:14:22;98.25;;;87.97;;
28623;SDS011;15813;46.932;19.658;2023-04-21T02:16:47;98.35;;;85.85;;
28623;SDS011;15813;46.932;19.658;2023-04-21T02:19:13;106.80;;;91.40;;
28623;SDS011;15813;46.932;19.658;2023-04-21T02:21:38;90.18;;;81.60;;
28623;SDS011;15813;46.932;19.658;2023-04-21T02:24:03;67.03;;;60.47;;
28623;SDS011;15813;46.932;19.658;2023-04-21T02:26:29;37.53;;;34.58;;
28623;SDS011;15813;46.932;19.658;2023-04-21T02:28:54;88.40;;;79.25;;
28623;SDS011;15813;46.932;19.658;2023-04-21T02:31:19;95.05;;;85.32;;
28623;SDS011;15813;46.932;19.658;2023-04-21T02:33:44;80.53;;;72.68;;
28623;SDS011;15813;46.932;19.658;2023-04-21T02:36:10;67.72;;;61.33;;
28623;SDS011;15813;46.932;19.658;2023-04-21T02:38:35;68.85;;;62.60;;
28623;SDS011;15813;46.932;19.658;2023-04-21T02:41:01;82.07;;;73.82;;
28623;SDS011;15813;46.932;19.658;2023-04-21T02:43:26;90.60;;;78.30;;
28623;SDS011;15813;46.932;19.658;2023-04-21T02:45:51;80.00;;;71.43;;
28623;SDS011;15813;46.932;19.658;2023-04-21T02:48:17;80.82;;;73.10;;
28623;SDS011;15813;46.932;19.658;2023-04-21T02:50:49;79.47;;;71.32;;
28623;SDS011;15813;46.932;19.658;2023-04-21T02:53:17;104.35;;;86.15;;
28623;SDS011;15813;46.932;19.658;2023-04-21T02:55:42;113.05;;;92.28;;
28623;SDS011;15813;46.932;19.658;2023-04-21T02:58:07;106.45;;;85.75;;
28623;SDS011;15813;46.932;19.658;2023-04-21T03:00:33;97.15;;;86.55;;
28623;SDS011;15813;46.932;19.658;2023-04-21T03:02:58;80.35;;;72.07;;
28623;SDS011;15813;46.932;19.658;2023-04-21T03:05:23;78.43;;;70.88;;
28623;SDS011;15813;46.932;19.658;2023-04-21T03:07:49;67.72;;;60.80;;
28623;SDS011;15813;46.932;19.658;2023-04-21T03:10:14;32.35;;;23.70;;
28623;SDS011;15813;46.932;19.658;2023-04-21T03:12:40;21.17;;;11.50;;
28623;SDS011;15813;46.932;19.658;2023-04-21T03:15:05;17.92;;;6.50;;
28623;SDS011;15813;46.932;19.658;2023-04-21T03:17:30;16.23;;;6.45;;
28623;SDS011;15813;46.932;19.658;2023-04-21T03:19:56;10.68;;;5.15;;
28623;SDS011;15813;46.932;19.658;2023-04-21T03:22:21;12.02;;;7.25;;
28623;SDS011;15813;46.932;19.658;2023-04-21T03:24:46;24.55;;;6.55;;
28623;SDS011;15813;46.932;19.658;2023-04-21T03:27:11;13.65;;;5.88;;
28623;SDS011;15813;46.932;19.658;2023-04-21T03:29:37;13.38;;;5.70;;
28623;SDS011;15813;46.932;19.658;2023-04-21T03:32:02;23.00;;;10.23;;
28623;SDS011;15813;46.932;19.658;2023-04-21T03:34:27;26.85;;;10.55;;
28623;SDS011;15813;46.932;19.658;2023-04-21T03:36:53;9.77;;;4.85;;
28623;SDS011;15813;46.932;19.658;2023-04-21T03:39:19;15.02;;;6.35;;
28623;SDS011;15813;46.932;19.658;2023-04-21T03:41:45;11.23;;;4.45;;
28623;SDS011;15813;46.932;19.658;2023-04-21T03:44:10;22.88;;;7.53;;
28623;SDS011;15813;46.932;19.658;2023-04-21T03:46:35;19.52;;;6.32;;
28623;SDS011;15813;46.932;19.658;2023-04-21T03:49:00;15.15;;;5.63;;
28623;SDS011;15813;46.932;19.658;2023-04-21T03:51:26;13.13;;;3.92;;
28623;SDS011;15813;46.932;19.658;2023-04-21T03:53:51;17.27;;;4.72;;
28623;SDS011;15813;46.932;19.658;2023-04-21T03:56:16;12.43;;;5.00;;
28623;SDS011;15813;46.932;19.658;2023-04-21T03:58:41;14.18;;;5.95;;
28623;SDS011;15813;46.932;19.658;2023-04-21T04:01:07;17.70;;;6.28;;
28623;SDS011;15813;46.932;19.658;2023-04-21T04:03:32;12.50;;;4.93;;
28623;SDS011;15813;46.932;19.658;2023-04-21T04:05:57;19.80;;;6.63;;
28623;SDS011;15813;46.932;19.658;2023-04-21T04:08:23;14.65;;;5.28;;
28623;SDS011;15813;46.932;19.658;2023-04-21T04:10:48;16.90;;;4.88;;
28623;SDS011;15813;46.932;19.658;2023-04-21T04:13:13;15.25;;;4.93;;
28623;SDS011;15813;46.932;19.658;2023-04-21T04:15:39;10.98;;;4.38;;
28623;SDS011;15813;46.932;19.658;2023-04-21T04:18:04;11.93;;;5.35;;
28623;SDS011;15813;46.932;19.658;2023-04-21T04:20:29;19.80;;;6.03;;
28623;SDS011;15813;46.932;19.658;2023-04-21T04:22:55;22.52;;;4.75;;
28623;SDS011;15813;46.932;19.658;2023-04-21T04:25:20;13.48;;;4.80;;
28623;SDS011;15813;46.932;19.658;2023-04-21T04:27:45;16.95;;;5.70;;
28623;SDS011;15813;46.932;19.658;2023-04-21T04:30:13;14.00;;;5.55;;
28623;SDS011;15813;46.932;19.658;2023-04-21T04:32:38;16.02;;;5.20;;
28623;SDS011;15813;46.932;19.658;2023-04-21T04:35:07;16.83;;;4.28;;
28623;SDS011;15813;46.932;19.658;2023-04-21T04:37:36;13.65;;;4.85;;
28623;SDS011;15813;46.932;19.658;2023-04-21T04:40:01;11.05;;;4.03;;
28623;SDS011;15813;46.932;19.658;2023-04-21T04:42:29;19.63;;;5.53;;
28623;SDS011;15813;46.932;19.658;2023-04-21T04:44:55;8.95;;;4.53;;
28623;SDS011;15813;46.932;19.658;2023-04-21T04:47:21;16.98;;;5.13;;
28623;SDS011;15813;46.932;19.658;2023-04-21T04:49:46;10.32;;;4.15;;
28623;SDS011;15813;46.932;19.658;2023-04-21T04:52:11;13.10;;;4.63;;
28623;SDS011;15813;46.932;19.658;2023-04-21T04:54:36;17.50;;;4.43;;
28623;SDS011;15813;46.932;19.658;2023-04-21T04:57:02;15.75;;;4.80;;
28623;SDS011;15813;46.932;19.658;2023-04-21T04:59:27;16.33;;;5.15;;
28623;SDS011;15813;46.932;19.658;2023-04-21T05:01:52;18.00;;;4.53;;
28623;SDS011;15813;46.932;19.658;2023-04-21T05:04:18;15.13;;;6.05;;
28623;SDS011;15813;46.932;19.658;2023-04-21T05:06:43;11.38;;;4.78;;
28623;SDS011;15813;46.932;19.658;2023-04-21T05:09:08;12.90;;;4.35;;
28623;SDS011;15813;46.932;19.658;2023-04-21T05:11:34;13.73;;;4.82;;
28623;SDS011;15813;46.932;19.658;2023-04-21T05:13:59;15.30;;;4.07;;
28623;SDS011;15813;46.932;19.658;2023-04-21T05:16:25;15.52;;;3.95;;
28623;SDS011;15813;46.932;19.658;2023-04-21T05:18:50;19.77;;;5.10;;
28623;SDS011;15813;46.932;19.658;2023-04-21T05:21:24;13.32;;;4.50;;
28623;SDS011;15813;46.932;19.658;2023-04-21T05:23:51;13.57;;;3.97;;
28623;SDS011;15813;46.932;19.658;2023-04-21T05:26:16;13.98;;;3.55;;
28623;SDS011;15813;46.932;19.658;2023-04-21T05:28:41;13.82;;;3.95;;
28623;SDS011;15813;46.932;19.658;2023-04-21T05:31:07;12.13;;;4.18;;
28623;SDS011;15813;46.932;19.658;2023-04-21T05:33:32;11.43;;;3.50;;
28623;SDS011;15813;46.932;19.658;2023-04-21T05:35:57;15.50;;;3.75;;
28623;SDS011;15813;46.932;19.658;2023-04-21T05:38:23;13.90;;;4.03;;
28623;SDS011;15813;46.932;19.658;2023-04-21T05:40:52;12.57;;;3.67;;
28623;SDS011;15813;46.932;19.658;2023-04-21T05:43:17;14.63;;;3.80;;
28623;SDS011;15813;46.932;19.658;2023-04-21T05:45:43;13.05;;;3.95;;
28623;SDS011;15813;46.932;19.658;2023-04-21T05:48:08;26.07;;;5.30;;
28623;SDS011;15813;46.932;19.658;2023-04-21T05:50:33;15.30;;;3.92;;
28623;SDS011;15813;46.932;19.658;2023-04-21T05:52:59;15.43;;;3.80;;
28623;SDS011;15813;46.932;19.658;2023-04-21T05:55:25;15.25;;;3.65;;
28623;SDS011;15813;46.932;19.658;2023-04-21T05:57:50;11.67;;;3.50;;
28623;SDS011;15813;46.932;19.658;2023-04-21T06:00:15;13.68;;;3.83;;
28623;SDS011;15813;46.932;19.658;2023-04-21T06:02:40;17.02;;;4.13;;
28623;SDS011;15813;46.932;19.658;2023-04-21T06:05:06;13.55;;;4.38;;
28623;SDS011;15813;46.932;19.658;2023-04-21T06:07:31;20.35;;;3.97;;
28623;SDS011;15813;46.932;19.658;2023-04-21T06:09:57;10.68;;;3.78;;
28623;SDS011;15813;46.932;19.658;2023-04-21T06:12:22;19.40;;;4.72;;
28623;SDS011;15813;46.932;19.658;2023-04-21T06:14:47;15.95;;;4.40;;
28623;SDS011;15813;46.932;19.658;2023-04-21T06:17:15;12.82;;;3.72;;
28623;SDS011;15813;46.932;19.658;2023-04-21T06:19:40;20.65;;;5.20;;
28623;SDS011;15813;46.932;19.658;2023-04-21T06:22:05;14.17;;;4.20;;
28623;SDS011;15813;46.932;19.658;2023-04-21T06:24:31;22.77;;;4.63;;
28623;SDS011;15813;46.932;19.658;2023-04-21T06:26:56;20.33;;;3.95;;
28623;SDS011;15813;46.932;19.658;2023-04-21T06:29:22;20.45;;;5.07;;
28623;SDS011;15813;46.932;19.658;2023-04-21T06:31:47;18.02;;;4.68;;
28623;SDS011;15813;46.932;19.658;2023-04-21T06:34:12;24.58;;;5.82;;
28623;SDS011;15813;46.932;19.658;2023-04-21T06:36:38;17.23;;;5.35;;
28623;SDS011;15813;46.932;19.658;2023-04-21T06:39:03;14.80;;;4.35;;
28623;SDS011;15813;46.932;19.658;2023-04-21T06:41:28;14.48;;;3.97;;
28623;SDS011;15813;46.932;19.658;2023-04-21T06:43:54;21.98;;;3.78;;
28623;SDS011;15813;46.932;19.658;2023-04-21T06:46:19;19.20;;;4.47;;
28623;SDS011;15813;46.932;19.658;2023-04-21T06:48:44;20.97;;;4.27;;
28623;SDS011;15813;46.932;19.658;2023-04-21T06:51:10;14.48;;;4.78;;
28623;SDS011;15813;46.932;19.658;2023-04-21T06:53:35;19.73;;;3.47;;
28623;SDS011;15813;46.932;19.658;2023-04-21T06:56:02;13.00;;;4.10;;
28623;SDS011;15813;46.932;19.658;2023-04-21T06:58:27;15.63;;;5.30;;
28623;SDS011;15813;46.932;19.658;2023-04-21T07:00:52;15.73;;;4.27;;
28623;SDS011;15813;46.932;19.658;2023-04-21T07:03:18;12.00;;;4.45;;
28623;SDS011;15813;46.932;19.658;2023-04-21T07:05:43;13.98;;;3.83;;
28623;SDS011;15813;46.932;19.658;2023-04-21T07:08:08;15.68;;;3.88;;
28623;SDS011;15813;46.932;19.658;2023-04-21T07:10:33;16.03;;;3.47;;
28623;SDS011;15813;46.932;19.658;2023-04-21T07:12:59;24.48;;;3.15;;
28623;SDS011;15813;46.932;19.658;2023-04-21T07:15:24;17.80;;;3.33;;
28623;SDS011;15813;46.932;19.658;2023-04-21T07:17:49;15.20;;;4.75;;
28623;SDS011;15813;46.932;19.658;2023-04-21T07:20:15;12.20;;;3.20;;
28623;SDS011;15813;46.932;19.658;2023-04-21T07:22:42;8.35;;;2.80;;
28623;SDS011;15813;46.932;19.658;2023-04-21T07:25:07;14.80;;;3.42;;
28623;SDS011;15813;46.932;19.658;2023-04-21T07:27:33;16.40;;;3.35;;
28623;SDS011;15813;46.932;19.658;2023-04-21T07:30:00;18.67;;;3.63;;
28623;SDS011;15813;46.932;19.658;2023-04-21T07:32:26;12.60;;;3.10;;
28623;SDS011;15813;46.932;19.658;2023-04-21T07:34:51;17.43;;;2.90;;
28623;SDS011;15813;46.932;19.658;2023-04-21T07:37:16;4.88;;;2.38;;
28623;SDS011;15813;46.932;19.658;2023-04-21T07:39:42;13.63;;;2.90;;
28623;SDS011;15813;46.932;19.658;2023-04-21T07:42:07;17.40;;;3.33;;
28623;SDS011;15813;46.932;19.658;2023-04-21T07:44:33;12.88;;;2.58;;
28623;SDS011;15813;46.932;19.658;2023-04-21T07:46:59;13.57;;;2.83;;
28623;SDS011;15813;46.932;19.658;2023-04-21T07:49:24;13.95;;;2.45;;
28623;SDS011;15813;46.932;19.658;2023-04-21T07:51:49;12.18;;;2.40;;
28623;SDS011;15813;46.932;19.658;2023-04-21T07:54:15;12.10;;;2.03;;
28623;SDS011;15813;46.932;19.658;2023-04-21T07:56:40;13.50;;;2.08;;
28623;SDS011;15813;46.932;19.658;2023-04-21T07:59:05;13.30;;;2.97;;
28623;SDS011;15813;46.932;19.658;2023-04-21T08:01:30;15.23;;;2.90;;
28623;SDS011;15813;46.932;19.658;2023-04-21T08:03:56;10.57;;;2.80;;
28623;SDS011;15813;46.932;19.658;2023-04-21T08:06:21;18.27;;;2.72;;
28623;SDS011;15813;46.932;19.658;2023-04-21T08:08:46;12.98;;;2.50;;
28623;SDS011;15813;46.932;19.658;2023-04-21T08:11:12;9.80;;;2.70;;
28623;SDS011;15813;46.932;19.658;2023-04-21T08:13:37;9.90;;;3.20;;
28623;SDS011;15813;46.932;19.658;2023-04-21T08:16:02;15.20;;;2.75;;
28623;SDS011;15813;46.932;19.658;2023-04-21T08:18:28;14.00;;;3.58;;
28623;SDS011;15813;46.932;19.658;2023-04-21T08:20:53;17.08;;;2.85;;
28623;SDS011;15813;46.932;19.658;2023-04-21T08:23:21;18.95;;;4.50;;
28623;SDS011;15813;46.932;19.658;2023-04-21T08:25:46;10.35;;;3.22;;
28623;SDS011;15813;46.932;19.658;2023-04-21T08:28:11;11.63;;;2.93;;
28623;SDS011;15813;46.932;19.658;2023-04-21T08:30:38;13.98;;;2.83;;
28623;SDS011;15813;46.932;19.658;2023-04-21T08:33:03;15.68;;;3.63;;
28623;SDS011;15813;46.932;19.658;2023-04-21T08:35:28;12.15;;;3.97;;
28623;SDS011;15813;46.932;19.658;2023-04-21T08:37:54;9.10;;;2.75;;
28623;SDS011;15813;46.932;19.658;2023-04-21T08:40:19;14.38;;;3.00;;
28623;SDS011;15813;46.932;19.658;2023-04-21T08:42:45;12.30;;;2.17;;
28623;SDS011;15813;46.932;19.658;2023-04-21T08:45:10;9.68;;;2.40;;
28623;SDS011;15813;46.932;19.658;2023-04-21T08:47:37;30.40;;;2.80;;
28623;SDS011;15813;46.932;19.658;2023-04-21T08:50:03;13.98;;;2.17;;
28623;SDS011;15813;46.932;19.658;2023-04-21T08:52:29;7.07;;;2.40;;
28623;SDS011;15813;46.932;19.658;2023-04-21T08:54:55;14.67;;;2.50;;
28623;SDS011;15813;46.932;19.658;2023-04-21T08:57:20;8.45;;;2.40;;
28623;SDS011;15813;46.932;19.658;2023-04-21T08:59:45;13.30;;;3.47;;
28623;SDS011;15813;46.932;19.658;2023-04-21T09:02:14;19.48;;;3.03;;
28623;SDS011;15813;46.932;19.658;2023-04-21T09:04:41;15.43;;;3.13;;
28623;SDS011;15813;46.932;19.658;2023-04-21T09:07:06;12.57;;;2.60;;
28623;SDS011;15813;46.932;19.658;2023-04-21T09:09:33;13.20;;;2.40;;
28623;SDS011;15813;46.932;19.658;2023-04-21T09:11:58;20.50;;;4.68;;
28623;SDS011;15813;46.932;19.658;2023-04-21T09:14:33;14.02;;;2.55;;
28623;SDS011;15813;46.932;19.658;2023-04-21T09:17:02;12.43;;;2.85;;
28623;SDS011;15813;46.932;19.658;2023-04-21T09:21:53;16.13;;;3.87;;
28623;SDS011;15813;46.932;19.658;2023-04-21T09:24:18;11.63;;;2.92;;
28623;SDS011;15813;46.932;19.658;2023-04-21T09:26:48;16.70;;;4.10;;
28623;SDS011;15813;46.932;19.658;2023-04-21T09:29:13;10.65;;;2.50;;
28623;SDS011;15813;46.932;19.658;2023-04-21T09:31:39;13.85;;;2.65;;
28623;SDS011;15813;46.932;19.658;2023-04-21T09:34:11;13.38;;;2.85;;
28623;SDS011;15813;46.932;19.658;2023-04-21T09:36:40;18.10;;;3.80;;
28623;SDS011;15813;46.932;19.658;2023-04-21T09:39:05;16.30;;;2.88;;
28623;SDS011;15813;46.932;19.658;2023-04-21T09:41:31;16.10;;;3.20;;
28623;SDS011;15813;46.932;19.658;2023-04-21T09:43:57;14.27;;;2.97;;
28623;SDS011;15813;46.932;19.658;2023-04-21T09:46:25;14.50;;;3.67;;
28623;SDS011;15813;46.932;19.658;2023-04-21T09:48:52;13.35;;;2.90;;
28623;SDS011;15813;46.932;19.658;2023-04-21T09:51:19;15.07;;;4.47;;
28623;SDS011;15813;46.932;19.658;2023-04-21T09:53:46;10.60;;;2.95;;
28623;SDS011;15813;46.932;19.658;2023-04-21T09:56:14;17.08;;;3.45;;
28623;SDS011;15813;46.932;19.658;2023-04-21T09:58:45;14.82;;;3.78;;
28623;SDS011;15813;46.932;19.658;2023-04-21T10:01:12;15.10;;;3.25;;
28623;SDS011;15813;46.932;19.658;2023-04-21T10:03:38;18.92;;;3.28;;
28623;SDS011;15813;46.932;19.658;2023-04-21T10:06:05;21.55;;;3.60;;
28623;SDS011;15813;46.932;19.658;2023-04-21T10:08:30;17.60;;;3.45;;
28623;SDS011;15813;46.932;19.658;2023-04-21T10:10:56;15.93;;;3.50;;
28623;SDS011;15813;46.932;19.658;2023-04-21T10:13:22;26.95;;;3.70;;
28623;SDS011;15813;46.932;19.658;2023-04-21T10:15:47;15.88;;;4.05;;
28623;SDS011;15813;46.932;19.658;2023-04-21T10:18:16;12.03;;;3.20;;
28623;SDS011;15813;46.932;19.658;2023-04-21T10:21:00;20.15;;;3.78;;
28623;SDS011;15813;46.932;19.658;2023-04-21T10:23:35;17.20;;;3.22;;
28623;SDS011;15813;46.932;19.658;2023-04-21T10:26:03;22.45;;;4.35;;
28623;SDS011;15813;46.932;19.658;2023-04-21T10:31:16;12.82;;;3.80;;
28623;SDS011;15813;46.932;19.658;2023-04-21T10:34:10;19.90;;;3.97;;
28623;SDS011;15813;46.932;19.658;2023-04-21T10:36:28;12.07;;;3.42;;
28623;SDS011;15813;46.932;19.658;2023-04-21T10:38:54;16.77;;;3.38;;
28623;SDS011;15813;46.932;19.658;2023-04-21T10:41:30;18.63;;;3.28;;
28623;SDS011;15813;46.932;19.658;2023-04-21T10:43:59;8.35;;;3.33;;
28623;SDS011;15813;46.932;19.658;2023-04-21T10:48:52;13.95;;;3.58;;
28623;SDS011;15813;46.932;19.658;2023-04-21T10:51:18;15.05;;;3.97;;
28623;SDS011;15813;46.932;19.658;2023-04-21T10:53:46;21.97;;;4.97;;
28623;SDS011;15813;46.932;19.658;2023-04-21T10:56:11;14.90;;;3.70;;
28623;SDS011;15813;46.932;19.658;2023-04-21T10:58:36;18.85;;;3.80;;
28623;SDS011;15813;46.932;19.658;2023-04-21T11:01:02;19.90;;;3.38;;
28623;SDS011;15813;46.932;19.658;2023-04-21T11:03:33;15.63;;;4.28;;
28623;SDS011;15813;46.932;19.658;2023-04-21T11:05:58;13.68;;;4.07;;
28623;SDS011;15813;46.932;19.658;2023-04-21T11:08:23;19.00;;;3.97;;
28623;SDS011;15813;46.932;19.658;2023-04-21T11:10:55;16.40;;;5.27;;
28623;SDS011;15813;46.932;19.658;2023-04-21T11:13:24;13.07;;;3.80;;
28623;SDS011;15813;46.932;19.658;2023-04-21T11:18:30;11.80;;;3.72;;
28623;SDS011;15813;46.932;19.658;2023-04-21T11:21:05;8.13;;;5.05;;
28623;SDS011;15813;46.932;19.658;2023-04-21T11:23:30;17.92;;;5.00;;
28623;SDS011;15813;46.932;19.658;2023-04-21T11:25:57;8.47;;;3.77;;
28623;SDS011;15813;46.932;19.658;2023-04-21T11:28:23;14.10;;;4.20;;
28623;SDS011;15813;46.932;19.658;2023-04-21T11:30:48;11.88;;;4.63;;
28623;SDS011;15813;46.932;19.658;2023-04-21T11:33:14;8.93;;;3.63;;
28623;SDS011;15813;46.932;19.658;2023-04-21T11:35:39;13.38;;;4.03;;
28623;SDS011;15813;46.932;19.658;2023-04-21T11:38:05;14.77;;;4.82;;
28623;SDS011;15813;46.932;19.658;2023-04-21T11:40:42;14.27;;;4.28;;
28623;SDS011;15813;46.932;19.658;2023-04-21T11:43:08;16.98;;;4.90;;
28623;SDS011;15813;46.932;19.658;2023-04-21T11:45:33;9.75;;;4.28;;
28623;SDS011;15813;46.932;19.658;2023-04-21T11:48:11;7.15;;;4.30;;
28623;SDS011;15813;46.932;19.658;2023-04-21T11:50:36;12.73;;;5.22;;
28623;SDS011;15813;46.932;19.658;2023-04-21T11:53:03;17.95;;;5.28;;
28623;SDS011;15813;46.932;19.658;2023-04-21T11:55:28;13.07;;;4.20;;
28623;SDS011;15813;46.932;19.658;2023-04-21T11:57:53;7.65;;;3.95;;
28623;SDS011;15813;46.932;19.658;2023-04-21T12:00:21;14.70;;;4.53;;
28623;SDS011;15813;46.932;19.658;2023-04-21T12:02:56;13.65;;;4.25;;
28623;SDS011;15813;46.932;19.658;2023-04-21T12:05:21;16.58;;;4.32;;
28623;SDS011;15813;46.932;19.658;2023-04-21T12:07:46;12.55;;;3.70;;
28623;SDS011;15813;46.932;19.658;2023-04-21T12:10:13;20.42;;;4.25;;
28623;SDS011;15813;46.932;19.658;2023-04-21T12:12:39;8.95;;;4.55;;
28623;SDS011;15813;46.932;19.658;2023-04-21T12:15:05;10.85;;;3.65;;
28623;SDS011;15813;46.932;19.658;2023-04-21T12:17:51;17.80;;;4.40;;
28623;SDS011;15813;46.932;19.658;2023-04-21T12:20:20;12.43;;;4.43;;
28623;SDS011;15813;46.932;19.658;2023-04-21T12:25:11;12.03;;;4.20;;
28623;SDS011;15813;46.932;19.658;2023-04-21T12:27:37;18.63;;;4.78;;
28623;SDS011;15813;46.932;19.658;2023-04-21T12:30:02;13.67;;;3.63;;
28623;SDS011;15813;46.932;19.658;2023-04-21T12:32:28;7.38;;;3.63;;
28623;SDS011;15813;46.932;19.658;2023-04-21T12:34:53;13.15;;;3.83;;
28623;SDS011;15813;46.932;19.658;2023-04-21T12:37:18;12.48;;;4.00;;
28623;SDS011;15813;46.932;19.658;2023-04-21T12:39:44;11.02;;;4.10;;
28623;SDS011;15813;46.932;19.658;2023-04-21T12:42:09;13.23;;;4.10;;
28623;SDS011;15813;46.932;19.658;2023-04-21T12:44:34;13.48;;;4.70;;
28623;SDS011;15813;46.932;19.658;2023-04-21T12:47:00;16.73;;;5.15;;
28623;SDS011;15813;46.932;19.658;2023-04-21T12:49:25;10.80;;;4.93;;
28623;SDS011;15813;46.932;19.658;2023-04-21T12:51:50;7.50;;;4.00;;
28623;SDS011;15813;46.932;19.658;2023-04-21T12:54:16;19.42;;;5.40;;
28623;SDS011;15813;46.932;19.658;2023-04-21T12:56:41;13.32;;;4.30;;
28623;SDS011;15813;46.932;19.658;2023-04-21T12:59:07;10.75;;;5.03;;
28623;SDS011;15813;46.932;19.658;2023-04-21T13:01:34;12.90;;;4.72;;
28623;SDS011;15813;46.932;19.658;2023-04-21T13:03:59;11.90;;;3.88;;
28623;SDS011;15813;46.932;19.658;2023-04-21T13:06:24;19.00;;;4.53;;
28623;SDS011;15813;46.932;19.658;2023-04-21T13:08:50;25.55;;;5.18;;
28623;SDS011;15813;46.932;19.658;2023-04-21T13:11:15;16.88;;;4.78;;
28623;SDS011;15813;46.932;19.658;2023-04-21T13:13:40;10.68;;;4.50;;
28623;SDS011;15813;46.932;19.658;2023-04-21T13:16:06;8.13;;;4.15;;
28623;SDS011;15813;46.932;19.658;2023-04-21T13:18:31;6.57;;;4.15;;
28623;SDS011;15813;46.932;19.658;2023-04-21T13:20:58;21.35;;;5.15;;
28623;SDS011;15813;46.932;19.658;2023-04-21T13:23:24;13.50;;;6.20;;
28623;SDS011;15813;46.932;19.658;2023-04-21T13:25:49;14.95;;;5.13;;
28623;SDS011;15813;46.932;19.658;2023-04-21T13:28:15;17.50;;;5.72;;
28623;SDS011;15813;46.932;19.658;2023-04-21T13:30:41;14.48;;;5.70;;
28623;SDS011;15813;46.932;19.658;2023-04-21T13:33:06;10.07;;;4.30;;
28623;SDS011;15813;46.932;19.658;2023-04-21T13:35:32;9.45;;;4.50;;
28623;SDS011;15813;46.932;19.658;2023-04-21T13:37:57;9.00;;;4.45;;
28623;SDS011;15813;46.932;19.658;2023-04-21T13:40:22;10.57;;;3.88;;
28623;SDS011;15813;46.932;19.658;2023-04-21T13:42:48;10.02;;;4.05;;
28623;SDS011;15813;46.932;19.658;2023-04-21T13:45:13;9.40;;;4.50;;
28623;SDS011;15813;46.932;19.658;2023-04-21T13:47:38;12.05;;;4.63;;
28623;SDS011;15813;46.932;19.658;2023-04-21T13:50:04;6.18;;;3.90;;
28623;SDS011;15813;46.932;19.658;2023-04-21T13:52:29;9.73;;;3.65;;
28623;SDS011;15813;46.932;19.658;2023-04-21T13:54:55;14.45;;;4.07;;
28623;SDS011;15813;46.932;19.658;2023-04-21T13:57:20;9.57;;;4.53;;
28623;SDS011;15813;46.932;19.658;2023-04-21T13:59:46;8.15;;;4.15;;
28623;SDS011;15813;46.932;19.658;2023-04-21T14:02:11;15.63;;;5.38;;
28623;SDS011;15813;46.932;19.658;2023-04-21T14:04:36;10.07;;;4.03;;
28623;SDS011;15813;46.932;19.658;2023-04-21T14:07:02;12.43;;;4.70;;
28623;SDS011;15813;46.932;19.658;2023-04-21T14:09:28;22.27;;;5.32;;
28623;SDS011;15813;46.932;19.658;2023-04-21T14:11:54;11.10;;;4.03;;
28623;SDS011;15813;46.932;19.658;2023-04-21T14:14:19;17.17;;;7.15;;
28623;SDS011;15813;46.932;19.658;2023-04-21T14:16:48;6.93;;;4.28;;
28623;SDS011;15813;46.932;19.658;2023-04-21T14:19:13;11.65;;;5.13;;
28623;SDS011;15813;46.932;19.658;2023-04-21T14:21:39;8.65;;;4.50;;
28623;SDS011;15813;46.932;19.658;2023-04-21T14:24:05;16.33;;;4.72;;